Denmark, Wisconsin
Current Conditions -  °F | °C
As of 7:56 AM on Friday 24 Oct 2014 (Local Time) from KMTW Reporting Station
Haze Haze  
Wind Chill: 49°   Ceiling: 900
Heat Index: 49°   Visibility: 4mi
Dew Point: 48°   Wind: 3mph
Humidity: 97%   Direction: 250°WSW
Pressure: 30.04"   Gusts: NA
Location:  44.35°N, 87.83°W
Report Text: KMTW 241256Z AUTO 25003KT 4SM BR OVC009 09/09 A3004 RMK AO2 SLP199 T00940089
Loading
Personal Weather Stations






























Interactive Weather Map
Tropical Storm Tracking
New forecast layout! Learn more

10-Day Weather Forecast

Advertisements
Track Severe Weather on mobile